Time;durP1;ratioP1;P1;durP2;ratioP2;P2;SDS_P1;SDS_P2;PMS_P1;PMS_P2;Temp;Humidity;BMP_temperature;BMP_pressure;BME280_temperature;BME280_humidity;BME280_pressure;Samples;Min_cycle;Max_cycle;Signal;HPM_P1;HPM_P2
2022/08/10 00:00:22;;;;;;;;;7.00;7.00;;;;;26.15;36.09;101735.16;5071675;28;45366;-51
2022/08/10 00:02:51;;;;;;;;;8.50;7.75;;;;;26.16;36.03;101742.19;5064384;28;45361;-54
2022/08/10 00:05:17;;;;;;;;;12.00;8.50;;;;;26.15;35.85;101743.13;5057406;28;45388;-54
2022/08/10 00:07:43;;;;;;;;;7.75;6.75;;;;;26.15;36.10;101735.16;5057856;28;45501;-55
2022/08/10 00:10:11;;;;;;;;;10.25;7.25;;;;;26.16;36.17;101730.69;5056929;28;45352;-55
2022/08/10 00:12:37;;;;;;;;;9.25;7.00;;;;;26.15;35.83;101732.50;5057446;28;45510;-53
2022/08/10 00:15:04;;;;;;;;;9.25;7.00;;;;;26.14;36.39;101730.81;5056545;28;46214;-54
2022/08/10 00:17:29;;;;;;;;;10.25;8.50;;;;;26.14;36.41;101727.28;5056481;28;45275;-55
2022/08/10 00:19:54;;;;;;;;;11.00;8.00;;;;;26.14;36.09;101728.16;5056590;28;45310;-53
2022/08/10 00:22:19;;;;;;;;;9.50;7.75;;;;;26.14;36.14;101732.59;5056689;28;45757;-55
2022/08/10 00:24:45;;;;;;;;;9.00;8.00;;;;;26.14;36.50;101728.16;5056612;28;47452;-55
2022/08/10 00:27:10;;;;;;;;;6.75;6.75;;;;;26.14;36.21;101730.81;5058642;28;54805;-55
2022/08/10 00:29:36;;;;;;;;;6.00;6.00;;;;;26.14;36.09;101737.91;5056068;28;45448;-55
2022/08/10 00:32:01;;;;;;;;;9.75;8.00;;;;;26.13;35.88;101734.41;5057006;28;45512;-55
2022/08/10 00:34:28;;;;;;;;;9.50;8.00;;;;;26.13;36.59;101731.75;5056318;28;46885;-54
2022/08/10 00:36:54;;;;;;;;;7.00;7.00;;;;;26.11;36.24;101736.31;5056180;28;45740;-55
2022/08/10 00:39:19;;;;;;;;;9.00;7.25;;;;;26.10;36.36;101731.09;5055939;28;45442;-56
2022/08/10 00:41:44;;;;;;;;;6.50;6.50;;;;;26.06;36.24;101741.06;5056470;28;45550;-56
2022/08/10 00:44:10;;;;;;;;;8.00;7.25;;;;;26.04;36.17;101722.53;5055529;28;45816;-56
2022/08/10 00:46:35;;;;;;;;;8.00;6.50;;;;;26.03;36.08;101726.16;5054686;28;65082;-54
2022/08/10 00:49:00;;;;;;;;;8.50;8.50;;;;;26.01;36.54;101732.53;5056379;28;45491;-56
2022/08/10 00:51:26;;;;;;;;;8.50;7.50;;;;;25.98;36.47;101717.66;5059197;28;45382;-56
2022/08/10 00:53:51;;;;;;;;;7.50;7.00;;;;;25.99;36.09;101724.66;5058793;28;46291;-54
2022/08/10 00:56:16;;;;;;;;;7.75;7.75;;;;;25.96;36.19;101718.69;5055947;28;45389;-55
2022/08/10 00:58:42;;;;;;;;;8.00;8.00;;;;;25.93;36.12;101717.94;5056200;28;45360;-56
2022/08/10 01:01:08;;;;;;;;;6.00;6.00;;;;;25.92;36.08;101724.19;5056686;28;45373;-52
2022/08/10 01:03:33;;;;;;;;;5.75;5.75;;;;;25.91;36.49;101717.19;5057774;28;46311;-50
2022/08/10 01:06:07;;;;;;;;;9.50;7.75;;;;;25.90;36.11;101718.13;5077107;28;51909;-51
2022/08/10 01:08:48;;;;;;;;;7.00;6.00;;;;;25.86;36.77;101724.59;5079302;28;45207;-49
2022/08/10 01:11:45;;;;;;;;;7.00;5.75;;;;;25.83;36.64;101721.28;5070916;27;45299;-44
2022/08/10 01:14:33;;;;;;;;;8.50;8.50;;;;;25.83;36.78;101719.50;5068400;28;45583;-45
2022/08/10 01:17:08;;;;;;;;;8.75;7.50;;;;;25.81;36.71;101721.38;5085068;28;45086;-49
2022/08/10 01:19:57;;;;;;;;;9.50;7.75;;;;;25.80;36.17;101719.69;5083418;28;45337;-48
2022/08/10 01:22:31;;;;;;;;;6.75;6.25;;;;;25.80;36.83;101717.03;5061620;28;45495;-56
2022/08/10 01:24:57;;;;;;;;;11.75;9.50;;;;;25.76;36.79;101715.50;5060254;28;46234;-54
2022/08/10 01:27:43;;;;;;;;;6.67;6.00;;;;;25.76;36.29;101718.16;5059897;28;45326;-55
2022/08/10 01:30:11;;;;;;;;;6.25;6.25;;;;;25.74;36.36;101712.13;5059615;28;45812;-56
2022/08/10 01:32:49;;;;;;;;;7.50;7.50;;;;;25.74;36.34;101706.81;5059394;28;45416;-54
2022/08/10 01:35:20;;;;;;;;;8.00;7.00;;;;;25.73;36.74;101713.06;5058913;28;45429;-55
2022/08/10 01:37:55;;;;;;;;;7.00;7.00;;;;;25.73;36.59;101713.06;5059011;28;45811;-57
2022/08/10 01:40:24;;;;;;;;;8.00;7.50;;;;;25.72;36.81;101711.34;5058925;28;45275;-57
2022/08/10 01:42:53;;;;;;;;;8.50;7.00;;;;;25.72;36.74;101709.53;5061198;28;45585;-55
2022/08/10 01:45:23;;;;;;;;;6.25;5.50;;;;;25.73;36.31;101707.75;5062542;28;46046;-56
2022/08/10 01:50:44;;;;;;;;;6.25;6.25;;;;;25.70;36.65;101702.63;5064849;28;45399;-54
2022/08/10 01:53:15;;;;;;;;;6.00;6.00;;;;;25.68;36.51;101699.22;5062154;28;45294;-54
2022/08/10 01:55:42;;;;;;;;;6.00;6.00;;;;;25.66;36.83;101706.41;5066628;28;45267;-45
2022/08/10 01:58:10;;;;;;;;;5.00;5.00;;;;;25.66;36.52;101698.47;5081819;28;45190;-51
2022/08/10 02:00:40;;;;;;;;;7.00;7.00;;;;;25.65;36.87;101702.06;5069050;28;45240;-55
2022/08/10 02:03:09;;;;;;;;;6.75;6.75;;;;;25.61;37.05;101694.31;5061633;28;45393;-51
2022/08/10 02:05:39;;;;;;;;;6.00;6.00;;;;;25.59;36.88;101695.34;5057833;28;45424;-47
2022/08/10 02:08:11;;;;;;;;;7.25;7.25;;;;;25.54;36.64;101695.63;5058810;28;45768;-48
2022/08/10 02:10:39;;;;;;;;;8.00;8.00;;;;;25.53;37.02;101691.28;5060943;28;45263;-56
2022/08/10 02:13:06;;;;;;;;;5.75;5.75;;;;;25.54;36.48;101692.16;5059548;28;45302;-55
2022/08/10 02:15:35;;;;;;;;;8.00;7.25;;;;;25.55;36.66;101692.03;5058309;28;46561;-55
2022/08/10 02:18:05;;;;;;;;;6.50;5.25;;;;;25.55;36.82;101692.03;5058242;28;45475;-55
2022/08/10 02:20:58;;;;;;;;;8.00;6.00;;;;;25.53;37.12;101699.22;5058545;28;45665;-55
2022/08/10 02:23:27;;;;;;;;;6.25;5.75;;;;;25.52;37.23;101700.19;5056084;28;45597;-55
2022/08/10 02:25:56;;;;;;;;;6.25;6.25;;;;;25.51;37.06;101700.28;5058257;28;46752;-55
2022/08/10 02:28:24;;;;;;;;;7.00;7.00;;;;;25.48;36.99;101701.34;5057681;28;45345;-55
2022/08/10 02:30:53;;;;;;;;;7.75;6.25;;;;;25.46;36.52;101700.59;5058109;28;45345;-56
2022/08/10 02:33:21;;;;;;;;;6.00;6.00;;;;;25.45;36.63;101698.88;5056875;28;45361;-56
2022/08/10 02:35:50;;;;;;;;;6.25;5.50;;;;;25.44;36.90;101692.72;5061550;28;45986;-54
2022/08/10 02:38:20;;;;;;;;;6.75;6.75;;;;;25.44;36.74;101697.16;5060133;28;45773;-55
2022/08/10 02:40:51;;;;;;;;;7.00;6.00;;;;;25.42;36.87;101694.63;5058394;28;45358;-55
2022/08/10 02:43:28;;;;;;;;;7.75;6.00;;;;;25.44;36.74;101703.34;5058100;28;45367;-55
2022/08/10 02:46:02;;;;;;;;;7.75;7.75;;;;;25.45;36.82;101696.22;5057841;28;46988;-56
2022/08/10 02:48:40;;;;;;;;;7.25;6.25;;;;;25.45;37.42;101698.88;5057266;28;45675;-54
2022/08/10 02:51:13;;;;;;;;;6.50;6.25;;;;;25.43;37.37;101706.06;5057916;28;45318;-50
2022/08/10 02:53:48;;;;;;;;;8.25;6.00;;;;;25.42;37.39;101699.94;5058045;28;45656;-55
2022/08/10 02:56:40;;;;;;;;;6.50;5.25;;;;;25.40;36.88;101704.47;5057435;28;46336;-55
2022/08/10 02:59:10;;;;;;;;;8.00;8.00;;;;;25.39;37.27;101707.22;5057600;28;45715;-46
2022/08/10 03:01:42;;;;;;;;;8.00;7.50;;;;;25.35;36.85;101708.34;5058675;28;45398;-54
2022/08/10 03:04:15;;;;;;;;;7.75;7.00;;;;;25.36;37.28;101704.72;5075196;28;44817;-49
2022/08/10 03:06:43;;;;;;;;;8.50;7.25;;;;;25.38;36.89;101713.47;5066155;28;46144;-52
2022/08/10 03:09:12;;;;;;;;;10.50;6.75;;;;;25.40;37.53;101707.13;5057537;28;45446;-55
2022/08/10 03:11:40;;;;;;;;;10.25;7.25;;;;;25.40;37.25;101707.13;5057542;28;45282;-56
2022/08/10 03:14:07;;;;;;;;;7.25;7.00;;;;;25.40;36.85;101715.09;5057171;28;45350;-46
2022/08/10 03:16:34;;;;;;;;;7.00;7.00;;;;;25.37;37.27;101701.13;5057905;28;45330;-48
2022/08/10 03:19:03;;;;;;;;;8.00;6.75;;;;;25.35;37.10;101698.59;5057337;28;45338;-46
2022/08/10 03:21:29;;;;;;;;;6.25;6.25;;;;;25.35;37.04;101708.34;5057336;28;45233;-45
2022/08/10 03:23:57;;;;;;;;;8.00;6.50;;;;;25.36;37.47;101704.72;5057657;28;45397;-45
2022/08/10 03:26:24;;;;;;;;;7.75;7.25;;;;;25.34;37.66;101709.28;5057184;28;46582;-46
2022/08/10 03:28:51;;;;;;;;;7.50;7.50;;;;;25.34;37.29;101693.34;5060631;28;45755;-47
2022/08/10 03:31:17;;;;;;;;;7.00;5.75;;;;;25.31;37.37;101694.41;5079050;28;45347;-46
2022/08/10 03:33:43;;;;;;;;;6.00;6.00;;;;;25.30;37.52;101690.03;5073195;28;45337;-55
2022/08/10 03:36:09;;;;;;;;;7.25;6.25;;;;;25.32;37.05;101698.78;5057123;28;47090;-52
2022/08/10 03:38:35;;;;;;;;;6.00;5.25;;;;;25.33;37.07;101695.16;5057404;28;45362;-48
2022/08/10 03:41:03;;;;;;;;;5.50;5.25;;;;;25.35;37.54;101700.38;5057574;28;45255;-55
2022/08/10 03:43:29;;;;;;;;;6.00;6.00;;;;;25.36;37.10;101702.09;5057046;28;45551;-56
2022/08/10 03:45:58;;;;;;;;;7.50;6.50;;;;;25.36;37.61;101704.72;5057353;28;46651;-60
2022/08/10 03:48:26;;;;;;;;;6.50;6.50;;;;;25.37;37.48;101711.75;5055610;28;45760;-54
2022/08/10 03:50:54;;;;;;;;;6.75;6.75;;;;;25.36;37.50;101707.38;5060038;28;45379;-56
2022/08/10 03:53:20;;;;;;;;;5.50;5.50;;;;;25.34;37.04;101709.28;5074742;28;45473;-45
2022/08/10 03:55:46;;;;;;;;;6.75;6.00;;;;;25.34;37.25;101702.19;5065908;28;46848;-55
2022/08/10 03:58:12;;;;;;;;;6.00;6.00;;;;;25.35;37.00;101711.84;5056702;28;45426;-54
2022/08/10 04:00:39;;;;;;;;;7.00;5.50;;;;;25.34;37.60;101701.31;5058685;28;45342;-55
2022/08/10 04:03:05;;;;;;;;;5.75;5.75;;;;;25.32;37.01;101699.59;5062943;28;45604;-54
2022/08/10 04:05:34;;;;;;;;;5.75;5.25;;;;;25.34;36.95;101698.66;5062542;28;46293;-55
2022/08/10 04:08:00;;;;;;;;;6.50;6.50;;;;;25.36;37.37;101705.56;5062868;28;45357;-50
2022/08/10 04:10:27;;;;;;;;;6.00;5.50;;;;;25.35;36.99;101703.03;5062022;28;45316;-56
2022/08/10 04:12:53;;;;;;;;;4.50;4.00;;;;;25.35;37.35;101703.03;5061752;28;45278;-53
2022/08/10 04:15:18;;;;;;;;;7.00;6.00;;;;;25.36;37.19;101704.72;5056458;28;46241;-53
2022/08/10 04:17:43;;;;;;;;;5.00;5.00;;;;;25.32;37.07;101702.25;5056764;28;45308;-54
2022/08/10 04:20:16;;;;;;;;;6.00;5.75;;;;;25.31;37.44;101705.84;5057364;28;49405;-55
2022/08/10 04:22:43;;;;;;;;;6.00;4.75;;;;;25.28;37.63;101702.56;5058158;28;45365;-55
2022/08/10 04:25:11;;;;;;;;;8.00;6.00;;;;;25.27;37.40;101708.81;5055640;28;45322;-55
2022/08/10 04:27:36;;;;;;;;;4.50;4.50;;;;;25.26;37.64;101710.63;5056458;28;45334;-53
2022/08/10 04:30:02;;;;;;;;;7.00;6.25;;;;;25.23;37.42;101710.78;5055092;28;45531;-54
2022/08/10 04:32:30;;;;;;;;;6.00;6.00;;;;;25.16;37.33;101701.53;5056550;28;45275;-56
2022/08/10 04:34:57;;;;;;;;;6.25;6.25;;;;;25.13;37.42;101701.69;5056263;28;47361;-55
2022/08/10 04:37:23;;;;;;;;;6.50;5.50;;;;;25.10;37.24;101704.53;5056091;28;45342;-56
2022/08/10 04:39:49;;;;;;;;;5.50;5.50;;;;;25.07;37.38;101704.75;5056382;28;45327;-53
2022/08/10 04:42:15;;;;;;;;;6.50;6.50;;;;;25.01;37.84;101706.81;5055265;28;45497;-55
2022/08/10 04:44:42;;;;;;;;;5.00;5.00;;;;;24.96;37.68;101693.00;5058122;28;46665;-52
2022/08/10 04:47:07;;;;;;;;;6.75;5.25;;;;;24.94;37.74;101705.50;5059632;28;45241;-52
2022/08/10 04:49:32;;;;;;;;;7.25;6.50;;;;;24.96;38.06;101703.59;5056539;28;48672;-55
2022/08/10 04:51:57;;;;;;;;;6.50;6.00;;;;;24.95;37.58;101714.28;5056320;28;45446;-55
2022/08/10 04:54:24;;;;;;;;;6.25;6.25;;;;;24.92;37.71;101715.34;5054101;28;53696;-55
2022/08/10 04:56:49;;;;;;;;;6.25;6.00;;;;;24.91;37.75;101726.03;5055325;28;45344;-55
2022/08/10 04:59:14;;;;;;;;;5.50;5.25;;;;;24.91;38.20;101721.56;5055561;28;45265;-55
2022/08/10 05:01:40;;;;;;;;;6.50;5.00;;;;;24.93;38.24;101729.44;5056405;28;45445;-54
2022/08/10 05:04:05;;;;;;;;;4.75;4.75;;;;;24.93;37.96;101727.66;5069294;28;47394;-54
2022/08/10 05:06:31;;;;;;;;;6.75;5.25;;;;;24.95;37.67;101727.53;5072492;28;45576;-53
2022/08/10 05:08:56;;;;;;;;;9.75;5.50;;;;;24.95;38.13;101725.75;5055750;28;45299;-49
2022/08/10 05:11:22;;;;;;;;;8.50;5.75;;;;;24.99;37.89;101726.41;5059730;28;45354;-53
2022/08/10 05:13:47;;;;;;;;;6.00;5.75;;;;;24.99;38.16;101724.63;5058385;28;45428;-47
2022/08/10 05:16:12;;;;;;;;;7.00;5.50;;;;;25.01;38.14;101722.72;5055336;28;52844;-48
2022/08/10 05:18:38;;;;;;;;;6.00;6.00;;;;;25.03;38.40;101725.28;5055693;28;49997;-48
2022/08/10 05:21:04;;;;;;;;;7.50;6.00;;;;;25.00;38.21;101728.97;5056230;28;45577;-47
2022/08/10 05:23:29;;;;;;;;;5.25;5.25;;;;;25.02;38.12;101731.56;5055779;28;47393;-56
2022/08/10 05:25:54;;;;;;;;;7.25;6.00;;;;;24.96;37.72;101727.47;5055421;28;54323;-55
2022/08/10 05:28:20;;;;;;;;;4.00;4.00;;;;;24.92;38.13;101731.25;5054922;28;45375;-54
2022/08/10 05:30:45;;;;;;;;;6.00;6.00;;;;;24.93;37.84;101730.31;5056085;28;45306;-48
2022/08/10 05:33:10;;;;;;;;;7.00;6.00;;;;;24.93;38.33;101735.59;5055084;28;53314;-48
2022/08/10 05:35:37;;;;;;;;;6.50;6.00;;;;;24.96;37.96;101734.56;5056000;28;45185;-46
2022/08/10 05:38:04;;;;;;;;;6.00;6.00;;;;;24.95;38.38;101739.03;5059541;28;45375;-47
2022/08/10 05:40:29;;;;;;;;;6.50;6.50;;;;;24.98;38.26;101736.16;5059242;28;45355;-46
2022/08/10 05:42:55;;;;;;;;;6.75;5.50;;;;;24.98;38.33;101732.66;5055570;28;46425;-48
2022/08/10 05:45:24;;;;;;;;;5.25;5.25;;;;;25.00;38.46;101736.09;5072058;28;45330;-47
2022/08/10 05:47:50;;;;;;;;;6.75;6.75;;;;;25.00;38.31;101734.28;5078574;28;45295;-55
2022/08/10 05:50:20;;;;;;;;;6.75;6.75;;;;;24.99;38.22;101734.38;5058581;28;45199;-57
2022/08/10 05:52:45;;;;;;;;;7.25;7.25;;;;;24.98;38.32;101736.16;5078247;28;44995;-53
2022/08/10 05:55:11;;;;;;;;;39.75;17.75;;;;;24.96;37.96;101732.78;5072673;28;45315;-55
2022/08/10 05:57:37;;;;;;;;;9.50;8.00;;;;;24.99;38.11;101734.38;5059262;28;45358;-55
2022/08/10 06:00:07;;;;;;;;;5.75;5.75;;;;;24.99;37.96;101740.53;5058178;28;45350;-55
2022/08/10 06:02:37;;;;;;;;;3.50;1.00;;;;;25.00;37.98;101739.59;5060071;28;46306;-56
2022/08/10 06:05:13;;;;;;;;;6.00;5.00;;;;;24.98;38.46;101741.47;5062181;28;45460;-55
2022/08/10 06:08:03;;;;;;;;;7.75;6.50;;;;;24.98;38.10;101733.50;5059104;28;45284;-49
2022/08/10 06:10:32;;;;;;;;;6.50;6.50;;;;;24.99;38.44;101745.81;5061179;28;45530;-54
2022/08/10 06:15:46;;;;;;;;;10.00;6.50;;;;;25.04;38.12;101742.06;5063344;28;45374;-52
2022/08/10 06:18:15;;;;;;;;;8.00;6.00;;;;;25.04;38.42;101737.59;5063399;28;45375;-56
2022/08/10 06:20:42;;;;;;;;;7.25;6.75;;;;;25.07;38.44;101747.19;5063813;28;45446;-54
2022/08/10 06:23:08;;;;;;;;;11.25;7.00;;;;;25.07;37.83;101733.91;5061500;28;46991;-55
2022/08/10 06:25:34;;;;;;;;;7.00;7.00;;;;;25.08;38.51;101748.91;5059147;28;45280;-54
2022/08/10 06:28:00;;;;;;;;;8.75;7.75;;;;;25.03;38.49;101743.84;5058942;28;45204;-56
2022/08/10 06:30:28;;;;;;;;;6.50;6.50;;;;;25.00;38.42;101736.09;5060979;28;45183;-55
2022/08/10 06:32:56;;;;;;;;;7.25;7.25;;;;;25.03;38.28;101743.00;5058830;28;46341;-52
2022/08/10 06:35:26;;;;;;;;;7.75;7.75;;;;;25.04;38.33;101752.66;5058235;28;45366;-53
2022/08/10 06:37:54;;;;;;;;;8.75;7.00;;;;;25.05;38.81;101744.59;5059121;28;45250;-50
2022/08/10 06:40:20;;;;;;;;;9.50;8.50;;;;;25.06;38.06;101756.91;5057311;28;45973;-52
2022/08/10 06:42:47;;;;;;;;;8.25;8.00;;;;;25.06;38.02;101750.78;5058203;28;46261;-53
2022/08/10 06:45:20;;;;;;;;;10.25;8.25;;;;;25.06;37.92;101753.44;5057886;28;45802;-53
2022/08/10 06:47:52;;;;;;;;;10.75;7.75;;;;;25.05;38.38;101749.06;5058374;28;45426;-50
2022/08/10 06:50:39;;;;;;;;;10.00;9.50;;;;;25.04;38.42;101750.00;5058371;28;45708;-52
2022/08/10 06:53:13;;;;;;;;;11.00;8.00;;;;;25.03;38.24;101748.31;5058050;28;46863;-50
2022/08/10 06:55:43;;;;;;;;;9.25;8.00;;;;;25.01;38.09;101746.59;5062294;28;45449;-49
2022/08/10 06:58:12;;;;;;;;;8.25;8.00;;;;;25.03;38.18;101756.25;5058938;28;45375;-49
2022/08/10 07:00:41;;;;;;;;;8.50;8.25;;;;;25.05;38.02;101757.03;5058810;28;45271;-53
2022/08/10 07:03:10;;;;;;;;;8.75;7.25;;;;;25.04;38.68;101750.84;5057990;28;45433;-52
2022/08/10 07:05:43;;;;;;;;;9.00;8.75;;;;;25.04;37.92;101753.50;5078817;28;45174;-50
2022/08/10 07:08:09;;;;;;;;;13.00;9.00;;;;;25.03;38.03;101751.78;5067007;28;45233;-48
2022/08/10 07:10:35;;;;;;;;;6.75;6.75;;;;;25.01;38.14;101756.38;5059562;28;45295;-50
2022/08/10 07:13:01;;;;;;;;;7.00;7.00;;;;;25.02;37.95;101750.13;5057571;28;46191;-51
2022/08/10 07:15:28;;;;;;;;;11.50;8.00;;;;;25.04;38.20;101745.56;5057887;28;45345;-49
2022/08/10 07:17:55;;;;;;;;;13.75;8.00;;;;;25.05;38.01;101741.13;5058013;28;45489;-50
2022/08/10 07:20:22;;;;;;;;;9.00;7.00;;;;;25.08;38.30;101744.44;5059943;28;45408;-52
2022/08/10 07:22:51;;;;;;;;;9.25;8.00;;;;;25.10;37.94;101744.31;5061675;28;46467;-51
2022/08/10 07:25:21;;;;;;;;;8.00;8.00;;;;;25.11;38.58;101741.59;5057499;28;45182;-51
2022/08/10 07:27:48;;;;;;;;;9.25;9.25;;;;;25.13;38.04;101744.16;5057778;28;45394;-53
2022/08/10 07:30:14;;;;;;;;;11.25;8.50;;;;;25.14;38.14;101741.38;5056900;28;45601;-53
2022/08/10 07:32:43;;;;;;;;;10.25;8.00;;;;;25.15;38.15;101742.25;5057908;28;46261;-53
2022/08/10 07:35:12;;;;;;;;;9.00;8.25;;;;;25.17;37.70;101732.41;5057914;28;45527;-51
2022/08/10 07:37:39;;;;;;;;;11.50;8.00;;;;;25.19;37.71;101751.72;5058156;28;45453;-55
2022/08/10 07:40:06;;;;;;;;;11.25;9.00;;;;;25.21;38.18;101743.69;5056779;28;45268;-54
2022/08/10 07:42:33;;;;;;;;;11.75;9.00;;;;;25.22;37.75;101743.56;5057236;28;46715;-46
2022/08/10 07:45:01;;;;;;;;;11.75;8.75;;;;;25.24;37.93;101744.34;5056886;28;45472;-50
2022/08/10 07:47:31;;;;;;;;;12.00;9.25;;;;;25.26;38.07;101745.09;5058885;28;45438;-53
2022/08/10 07:50:01;;;;;;;;;9.25;9.00;;;;;25.28;37.81;101745.88;5073409;28;45334;-51
2022/08/10 07:52:28;;;;;;;;;10.50;10.50;;;;;25.31;37.86;101752.78;5064787;28;47137;-48
2022/08/10 07:54:54;;;;;;;;;8.75;8.50;;;;;25.33;38.29;101750.91;5057069;28;45352;-48
2022/08/10 07:57:26;;;;;;;;;13.00;9.50;;;;;25.35;37.56;101751.66;5057458;28;45482;-45
2022/08/10 07:59:58;;;;;;;;;11.00;9.00;;;;;25.37;37.97;101746.25;5073823;28;45307;-51
2022/08/10 08:02:34;;;;;;;;;15.25;11.25;;;;;25.39;37.71;101760.28;5071715;28;45327;-50
2022/08/10 08:05:03;;;;;;;;;9.25;9.25;;;;;25.41;37.84;101761.06;5057051;28;45430;-53
2022/08/10 08:07:31;;;;;;;;;10.25;9.50;;;;;25.44;38.02;101760.84;5057338;28;45451;-55
2022/08/10 08:09:58;;;;;;;;;13.00;8.25;;;;;25.44;37.38;101764.38;5056737;28;45477;-50
2022/08/10 08:12:25;;;;;;;;;10.25;9.25;;;;;25.46;37.76;101756.31;5059199;28;47036;-52
2022/08/10 08:14:52;;;;;;;;;9.50;9.50;;;;;25.48;37.29;101757.06;5060367;28;45284;-52
2022/08/10 08:17:20;;;;;;;;;9.00;9.00;;;;;25.51;37.41;101750.72;5056861;28;45398;-54
2022/08/10 08:19:49;;;;;;;;;10.25;8.75;;;;;25.53;37.45;101754.97;5056811;28;45436;-52
2022/08/10 08:22:16;;;;;;;;;8.50;8.50;;;;;25.56;37.46;101754.78;5055562;28;46637;-50
2022/08/10 08:24:43;;;;;;;;;9.00;9.00;;;;;25.59;37.30;101748.44;5056611;28;45862;-50
2022/08/10 08:27:11;;;;;;;;;9.00;7.25;;;;;25.61;37.31;101744.75;5056776;28;45479;-53
2022/08/10 08:29:40;;;;;;;;;11.00;11.00;;;;;25.62;37.76;101738.50;5057070;28;45584;-50
2022/08/10 08:32:06;;;;;;;;;13.00;10.75;;;;;25.65;36.94;101737.44;5055370;28;46395;-53
